createdAt,value
2022-08-19T00:01:59.057Z,15.64
2022-08-19T00:04:31.937Z,15.71
2022-08-19T00:06:59.898Z,15.74
2022-08-19T00:09:28.026Z,15.65
2022-08-19T00:11:56.612Z,15.57
2022-08-19T00:14:25.596Z,15.49
2022-08-19T00:16:55.015Z,15.47
2022-08-19T00:19:23.647Z,15.45
2022-08-19T00:21:50.765Z,15.54
2022-08-19T00:24:17.621Z,15.57
2022-08-19T00:26:46.636Z,15.44
2022-08-19T00:29:17.113Z,15.34
2022-08-19T00:31:45.465Z,15.44
2022-08-19T00:34:13.736Z,15.58
2022-08-19T00:36:42.512Z,15.67
2022-08-19T00:39:10.368Z,15.75
2022-08-19T00:41:37.316Z,15.73
2022-08-19T00:44:14.646Z,15.63
2022-08-19T00:46:46.390Z,15.69
2022-08-19T00:49:33.646Z,15.75
2022-08-19T00:52:10.319Z,15.61
2022-08-19T00:54:40.002Z,15.50
2022-08-19T00:57:15.680Z,15.46
2022-08-19T01:00:00.993Z,15.45
2022-08-19T01:02:31.394Z,15.50
2022-08-19T01:04:59.969Z,15.54
2022-08-19T01:07:26.696Z,15.55
2022-08-19T01:09:53.437Z,15.46
2022-08-19T01:12:21.125Z,15.43
2022-08-19T01:14:48.869Z,15.42
2022-08-19T01:17:17.153Z,15.45
2022-08-19T01:19:47.663Z,15.53
2022-08-19T01:22:44.970Z,15.42
2022-08-19T01:25:15.066Z,15.28
2022-08-19T01:27:45.462Z,15.21
2022-08-19T01:30:23.376Z,15.27
2022-08-19T01:32:52.071Z,15.36
2022-08-19T01:35:20.290Z,15.35
2022-08-19T01:37:50.082Z,15.21
2022-08-19T01:40:17.838Z,15.12
2022-08-19T01:42:44.410Z,15.16
2022-08-19T01:45:11.283Z,15.25
2022-08-19T01:47:38.450Z,15.25
2022-08-19T01:50:08.179Z,15.10
2022-08-19T01:52:38.054Z,14.89
2022-08-19T01:55:09.306Z,14.84
2022-08-19T01:57:37.570Z,14.91
2022-08-19T02:00:09.712Z,15.00
2022-08-19T02:02:36.452Z,15.15
2022-08-19T02:05:04.350Z,15.18
2022-08-19T02:07:30.971Z,15.05
2022-08-19T02:09:58.315Z,14.94
2022-08-19T02:12:25.162Z,14.82
2022-08-19T02:14:51.662Z,14.80
2022-08-19T02:17:19.164Z,14.86
2022-08-19T02:19:45.684Z,14.95
2022-08-19T02:22:12.311Z,15.04
2022-08-19T02:24:39.886Z,15.09
2022-08-19T02:27:06.727Z,15.07
2022-08-19T02:29:33.355Z,14.93
2022-08-19T02:32:00.156Z,14.73
2022-08-19T02:34:26.692Z,14.66
2022-08-19T02:36:53.202Z,14.72
2022-08-19T02:39:20.243Z,14.82
2022-08-19T02:41:46.841Z,14.84
2022-08-19T02:44:29.422Z,14.72
2022-08-19T02:46:57.242Z,14.58
2022-08-19T02:49:23.779Z,14.53
2022-08-19T02:51:50.305Z,14.45
2022-08-19T02:54:16.895Z,14.40
2022-08-19T02:56:44.827Z,14.35
2022-08-19T02:59:12.567Z,14.24
2022-08-19T03:01:42.256Z,14.21
2022-08-19T03:04:14.286Z,14.21
2022-08-19T03:06:44.846Z,14.25
2022-08-19T03:09:12.167Z,14.28
2022-08-19T03:11:39.710Z,14.36
2022-08-19T03:14:08.877Z,14.45
2022-08-19T03:16:44.539Z,14.39
2022-08-19T03:19:11.195Z,14.28
2022-08-19T03:21:37.808Z,14.25
2022-08-19T03:24:09.470Z,14.27
2022-08-19T03:26:45.481Z,14.29
2022-08-19T03:29:13.160Z,14.32
2022-08-19T03:31:50.920Z,14.40
2022-08-19T03:34:29.610Z,14.45
2022-08-19T03:36:59.027Z,14.52
2022-08-19T03:39:26.562Z,14.50
2022-08-19T03:42:32.952Z,14.52
2022-08-19T03:44:45.883Z,14.52
2022-08-19T03:47:17.220Z,14.47
2022-08-19T03:49:44.087Z,14.29
2022-08-19T03:52:10.735Z,14.30
2022-08-19T03:54:39.270Z,14.34
2022-08-19T03:57:06.887Z,14.28
2022-08-19T03:59:37.076Z,14.19
2022-08-19T04:02:11.171Z,14.10
2022-08-19T04:04:44.629Z,14.13
2022-08-19T04:07:17.011Z,14.19
2022-08-19T04:09:43.746Z,14.27
2022-08-19T04:12:10.397Z,14.30
2022-08-19T04:14:37.263Z,14.17
2022-08-19T04:17:07.914Z,14.05
2022-08-19T04:19:37.393Z,13.93
2022-08-19T04:22:05.511Z,13.79
2022-08-19T04:24:32.894Z,13.73
2022-08-19T04:27:02.803Z,13.84
2022-08-19T04:29:30.976Z,13.97
2022-08-19T04:31:59.603Z,14.01
2022-08-19T04:34:30.430Z,13.94
2022-08-19T04:36:59.618Z,13.93
2022-08-19T04:39:49.731Z,13.82
2022-08-19T04:42:37.266Z,13.78
2022-08-19T04:45:12.470Z,13.85
2022-08-19T04:47:48.283Z,13.91
2022-08-19T04:50:28.523Z,13.95
2022-08-19T04:52:56.786Z,13.96
2022-08-19T04:55:26.267Z,13.98
2022-08-19T04:57:52.785Z,14.07
2022-08-19T05:00:19.432Z,14.18
2022-08-19T05:02:45.931Z,14.18
2022-08-19T05:05:13.426Z,14.13
2022-08-19T05:07:41.962Z,14.18
2022-08-19T05:10:09.026Z,14.30
2022-08-19T05:12:35.624Z,14.43
2022-08-19T05:15:07.863Z,14.44
2022-08-19T05:17:38.405Z,14.41
2022-08-19T05:20:26.724Z,14.37
2022-08-19T05:22:53.439Z,14.32
2022-08-19T05:25:22.353Z,14.38
2022-08-19T05:27:49.534Z,14.49
2022-08-19T05:30:17.762Z,14.61
2022-08-19T05:32:44.528Z,14.66
2022-08-19T05:35:12.549Z,14.70
2022-08-19T05:37:41.209Z,14.72
2022-08-19T05:40:09.987Z,14.85
2022-08-19T05:42:36.627Z,14.99
2022-08-19T05:45:05.331Z,15.02
2022-08-19T05:47:32.910Z,15.04
2022-08-19T05:49:59.778Z,15.06
2022-08-19T05:52:28.023Z,15.15
2022-08-19T05:54:56.759Z,15.34
2022-08-19T05:57:25.570Z,15.47
2022-08-19T05:59:58.026Z,15.54
2022-08-19T06:02:31.566Z,15.67
2022-08-19T06:04:58.513Z,15.67
2022-08-19T06:07:25.350Z,15.71
2022-08-19T06:09:59.951Z,15.80
2022-08-19T06:12:29.578Z,15.82
2022-08-19T06:15:01.113Z,15.83
2022-08-19T06:17:31.235Z,15.89
2022-08-19T06:19:59.161Z,15.90
2022-08-19T06:22:25.699Z,16.00
2022-08-19T06:24:54.476Z,16.15
2022-08-19T06:27:22.299Z,16.27
2022-08-19T06:29:49.078Z,16.34
2022-08-19T06:32:19.471Z,16.37
2022-08-19T06:34:46.467Z,16.39
2022-08-19T06:37:14.113Z,16.40
2022-08-19T06:39:44.104Z,16.44
2022-08-19T06:42:14.150Z,16.43
2022-08-19T06:44:48.333Z,16.45
2022-08-19T06:47:23.552Z,16.49
2022-08-19T06:50:05.210Z,16.45
2022-08-19T06:52:34.995Z,16.54
2022-08-19T06:55:05.884Z,16.61
2022-08-19T06:57:34.358Z,16.64
2022-08-19T07:00:01.106Z,16.69
2022-08-19T07:02:27.702Z,16.74
2022-08-19T07:04:54.655Z,16.81
2022-08-19T07:07:23.125Z,16.92
2022-08-19T07:09:59.866Z,17.00
2022-08-19T07:12:35.754Z,17.06
2022-08-19T07:15:05.768Z,17.14
2022-08-19T07:17:34.678Z,17.23
2022-08-19T07:20:05.037Z,17.32
2022-08-19T07:22:32.589Z,17.41
2022-08-19T07:24:59.091Z,17.51
2022-08-19T07:27:25.791Z,17.64
2022-08-19T07:29:55.731Z,17.71
2022-08-19T07:32:23.885Z,17.75
2022-08-19T07:34:50.528Z,17.80
2022-08-19T07:37:18.061Z,17.89
2022-08-19T07:39:44.766Z,17.97
2022-08-19T07:42:13.487Z,18.19
2022-08-19T07:44:41.528Z,18.36
2022-08-19T07:47:08.101Z,18.51
2022-08-19T07:49:55.164Z,18.68
2022-08-19T07:52:21.706Z,18.84
2022-08-19T07:54:48.259Z,18.98
2022-08-19T07:57:14.950Z,19.06
2022-08-19T07:59:41.644Z,19.13
2022-08-19T08:02:10.130Z,19.21
2022-08-19T08:04:55.496Z,19.22
2022-08-19T08:07:40.824Z,19.23
2022-08-19T08:10:20.715Z,19.32
2022-08-19T08:12:58.353Z,19.39
2022-08-19T08:15:41.343Z,19.43
2022-08-19T08:18:08.926Z,19.55
2022-08-19T08:20:36.037Z,19.56
2022-08-19T08:23:21.211Z,19.64
2022-08-19T08:25:49.396Z,19.73
2022-08-19T08:28:19.846Z,19.88
2022-08-19T08:30:48.956Z,19.85
2022-08-19T08:33:33.378Z,19.85
2022-08-19T08:36:08.450Z,19.99
2022-08-19T08:38:42.755Z,20.23
2022-08-19T08:41:22.911Z,20.44
2022-08-19T08:43:53.814Z,20.55
2022-08-19T08:46:43.571Z,20.68
2022-08-19T08:50:17.045Z,20.79
2022-08-19T08:52:52.058Z,20.86
2022-08-19T08:55:24.493Z,20.91
2022-08-19T08:58:02.816Z,20.94
2022-08-19T09:00:35.387Z,21.00
2022-08-19T09:03:07.009Z,21.05
2022-08-19T09:06:04.712Z,21.08
2022-08-19T09:08:51.104Z,21.16
2022-08-19T09:11:44.684Z,21.30
2022-08-19T09:14:52.036Z,21.48
2022-08-19T09:17:34.566Z,21.61
2022-08-19T09:20:19.967Z,21.67
2022-08-19T09:22:47.555Z,21.71
2022-08-19T09:25:26.666Z,21.69
2022-08-19T09:28:02.843Z,21.69
2022-08-19T09:30:35.078Z,21.89
2022-08-19T09:33:01.784Z,22.14
2022-08-19T09:35:30.921Z,22.35
2022-08-19T09:38:00.375Z,22.31
2022-08-19T09:40:35.408Z,22.21
2022-08-19T09:43:09.964Z,22.14
2022-08-19T09:45:36.783Z,22.11
2022-08-19T09:48:03.761Z,22.34
2022-08-19T09:50:39.272Z,22.51
2022-08-19T09:53:19.512Z,22.57
2022-08-19T09:55:46.133Z,22.61
2022-08-19T09:58:12.817Z,22.59
2022-08-19T10:00:39.794Z,22.71
2022-08-19T10:03:07.161Z,22.87
2022-08-19T10:05:50.186Z,22.84
2022-08-19T10:08:20.887Z,22.89
2022-08-19T10:10:49.128Z,23.06
2022-08-19T10:13:26.950Z,23.27
2022-08-19T10:15:57.119Z,23.22
2022-08-19T10:18:25.352Z,23.14
2022-08-19T10:20:54.442Z,23.22
2022-08-19T10:23:22.230Z,23.35
2022-08-19T10:25:50.519Z,23.65
2022-08-19T10:28:19.217Z,23.69
2022-08-19T10:30:47.438Z,23.72
2022-08-19T10:33:14.864Z,23.66
2022-08-19T10:35:42.697Z,23.48
2022-08-19T10:38:31.455Z,23.43
2022-08-19T10:41:07.440Z,23.53
2022-08-19T10:43:38.085Z,23.65
2022-08-19T10:46:14.140Z,23.72
2022-08-19T10:48:45.101Z,23.72
2022-08-19T10:51:31.694Z,23.65
2022-08-19T10:53:59.266Z,23.37
2022-08-19T10:56:46.343Z,23.59
2022-08-19T10:59:14.775Z,23.79
2022-08-19T11:01:45.350Z,24.12
2022-08-19T11:04:14.643Z,24.44
2022-08-19T11:06:44.171Z,24.66
2022-08-19T11:09:12.168Z,24.56
2022-08-19T11:11:41.649Z,24.46
2022-08-19T11:14:15.319Z,24.37
2022-08-19T11:16:43.427Z,24.30
2022-08-19T11:19:12.772Z,24.32
2022-08-19T11:21:43.150Z,24.41
2022-08-19T11:24:15.733Z,24.49
2022-08-19T11:26:44.998Z,24.85
2022-08-19T11:29:14.203Z,25.02
2022-08-19T11:31:45.080Z,25.25
2022-08-19T11:34:17.908Z,25.10
2022-08-19T11:36:47.037Z,24.85
2022-08-19T11:39:17.405Z,24.78
2022-08-19T11:41:43.918Z,24.88
2022-08-19T11:44:11.072Z,24.94
2022-08-19T11:46:39.033Z,24.99
2022-08-19T11:49:13.234Z,25.28
2022-08-19T11:51:43.729Z,25.12
2022-08-19T11:54:12.337Z,25.09
2022-08-19T11:56:40.011Z,25.19
2022-08-19T11:59:12.765Z,25.24
2022-08-19T12:01:43.385Z,25.35
2022-08-19T12:04:10.714Z,25.46
2022-08-19T12:06:40.418Z,25.37
2022-08-19T12:09:10.490Z,25.43
2022-08-19T12:11:39.422Z,25.43
2022-08-19T12:14:06.006Z,25.44
2022-08-19T12:16:33.548Z,25.42
2022-08-19T12:19:04.757Z,25.50
2022-08-19T12:21:34.154Z,25.64
2022-08-19T12:24:02.867Z,25.82
2022-08-19T12:26:32.245Z,25.87
2022-08-19T12:29:00.409Z,25.79
2022-08-19T12:31:29.640Z,25.72
2022-08-19T12:33:56.728Z,25.66
2022-08-19T12:36:24.168Z,25.71
2022-08-19T12:38:50.771Z,25.89
2022-08-19T12:41:19.289Z,25.82
2022-08-19T12:43:46.580Z,25.85
2022-08-19T12:46:13.583Z,25.78
2022-08-19T12:48:43.508Z,25.68
2022-08-19T12:51:20.768Z,25.71
2022-08-19T12:53:48.618Z,25.70
2022-08-19T12:56:15.630Z,25.54
2022-08-19T12:58:48.667Z,25.42
2022-08-19T13:01:22.509Z,25.33
2022-08-19T13:03:51.167Z,25.45
2022-08-19T13:06:20.167Z,25.58
2022-08-19T13:08:47.215Z,25.52
2022-08-19T13:11:18.369Z,25.50
2022-08-19T13:13:49.380Z,25.56
2022-08-19T13:16:16.684Z,25.66
2022-08-19T13:18:51.238Z,25.63
2022-08-19T13:21:17.824Z,25.56
2022-08-19T13:23:47.923Z,25.57
2022-08-19T13:26:15.159Z,25.58
2022-08-19T13:29:01.230Z,25.46
2022-08-19T13:31:51.342Z,25.52
2022-08-19T13:34:26.014Z,25.44
2022-08-19T13:36:58.347Z,25.40
2022-08-19T13:39:25.091Z,25.42
2022-08-19T13:41:51.681Z,25.36
2022-08-19T13:44:20.936Z,25.40
2022-08-19T13:46:54.103Z,25.47
2022-08-19T13:49:21.317Z,25.60
2022-08-19T13:51:47.855Z,25.69
2022-08-19T13:54:14.462Z,25.73
2022-08-19T13:56:46.519Z,25.82
2022-08-19T13:59:13.662Z,25.89
2022-08-19T14:01:42.496Z,25.91
2022-08-19T14:04:09.747Z,25.92
2022-08-19T14:06:36.684Z,25.92
2022-08-19T14:09:04.118Z,25.94
2022-08-19T14:11:31.266Z,26.03
2022-08-19T14:13:57.867Z,26.07
2022-08-19T14:16:25.629Z,26.14
2022-08-19T14:18:52.461Z,26.19
2022-08-19T14:21:24.598Z,26.07
2022-08-19T14:23:52.835Z,26.02
2022-08-19T14:26:21.554Z,25.85
2022-08-19T14:28:48.558Z,25.76
2022-08-19T14:31:19.793Z,25.75
2022-08-19T14:33:48.644Z,25.74
2022-08-19T14:36:15.767Z,25.71
2022-08-19T14:38:43.334Z,25.79
2022-08-19T14:41:18.276Z,25.82
2022-08-19T14:43:50.731Z,25.88
2022-08-19T14:46:22.723Z,25.90
2022-08-19T14:48:51.894Z,26.00
2022-08-19T14:51:24.282Z,26.04
2022-08-19T14:53:51.599Z,26.08
2022-08-19T14:56:28.556Z,25.96
2022-08-19T14:58:56.187Z,25.93
2022-08-19T15:01:24.112Z,25.98
2022-08-19T15:03:55.724Z,25.93
2022-08-19T15:06:25.171Z,25.97
2022-08-19T15:08:52.655Z,25.94
2022-08-19T15:11:24.423Z,25.92
2022-08-19T15:13:51.678Z,25.81
2022-08-19T15:16:19.489Z,25.72
2022-08-19T15:18:50.621Z,25.65
2022-08-19T15:21:26.731Z,25.63
2022-08-19T15:23:57.528Z,25.62
2022-08-19T15:26:26.083Z,25.50
2022-08-19T15:28:53.007Z,25.56
2022-08-19T15:31:27.930Z,25.50
2022-08-19T15:33:58.541Z,25.38
2022-08-19T15:36:26.930Z,25.36
2022-08-19T15:38:53.735Z,25.36
2022-08-19T15:41:29.284Z,25.33
2022-08-19T15:44:10.490Z,25.22
2022-08-19T15:46:40.719Z,25.28
2022-08-19T15:49:07.907Z,25.32
2022-08-19T15:51:36.355Z,25.28
2022-08-19T15:54:07.363Z,25.17
2022-08-19T15:57:06.639Z,25.13
2022-08-19T15:59:54.500Z,25.03
2022-08-19T16:02:46.221Z,25.00
2022-08-19T16:05:37.613Z,25.03
2022-08-19T16:08:05.777Z,25.11
2022-08-19T16:10:32.435Z,25.19
2022-08-19T16:12:59.146Z,25.19
2022-08-19T16:15:28.959Z,25.14
2022-08-19T16:17:57.995Z,25.10
2022-08-19T16:20:27.275Z,25.15
2022-08-19T16:22:56.373Z,25.00
2022-08-19T16:25:27.418Z,24.97
2022-08-19T16:28:07.741Z,24.92
2022-08-19T16:30:39.851Z,24.90
2022-08-19T16:33:08.751Z,24.92
2022-08-19T16:35:35.853Z,24.87
2022-08-19T16:38:02.638Z,24.80
2022-08-19T16:40:29.645Z,24.65
2022-08-19T16:42:56.428Z,24.57
2022-08-19T16:45:23.285Z,24.52
2022-08-19T16:47:50.447Z,24.44
2022-08-19T16:50:22.355Z,24.35
2022-08-19T16:53:00.077Z,24.28
2022-08-19T16:55:28.249Z,24.25
2022-08-19T16:57:54.835Z,24.20
2022-08-19T17:00:21.511Z,24.19
2022-08-19T17:02:48.059Z,24.17
2022-08-19T17:05:14.932Z,24.18
2022-08-19T17:07:41.434Z,24.11
2022-08-19T17:10:09.079Z,24.03
2022-08-19T17:12:37.425Z,24.04
2022-08-19T17:15:08.229Z,24.05
2022-08-19T17:17:35.748Z,23.99
2022-08-19T17:20:03.249Z,23.94
2022-08-19T17:22:29.877Z,23.92
2022-08-19T17:24:58.084Z,23.94
2022-08-19T17:27:31.981Z,23.94
2022-08-19T17:30:00.183Z,23.82
2022-08-19T17:32:27.238Z,23.78
2022-08-19T17:34:54.232Z,23.80
2022-08-19T17:37:21.087Z,23.83
2022-08-19T17:39:47.674Z,23.90
2022-08-19T17:42:14.481Z,23.88
2022-08-19T17:44:40.987Z,23.90
2022-08-19T17:47:07.870Z,23.87
2022-08-19T17:49:34.698Z,23.78
2022-08-19T17:52:01.215Z,23.72
2022-08-19T17:54:28.260Z,23.70
2022-08-19T17:57:01.174Z,23.52
2022-08-19T17:59:30.051Z,23.50
2022-08-19T18:01:57.845Z,23.52
2022-08-19T18:04:26.264Z,23.46
2022-08-19T18:06:55.433Z,23.30
2022-08-19T18:09:28.583Z,23.26
2022-08-19T18:12:07.331Z,23.25
2022-08-19T18:14:37.766Z,23.26
2022-08-19T18:17:14.126Z,23.20
2022-08-19T18:19:44.068Z,23.18
2022-08-19T18:22:37.740Z,23.07
2022-08-19T18:25:26.731Z,22.97
2022-08-19T18:27:59.605Z,22.88
2022-08-19T18:30:34.373Z,22.80
2022-08-19T18:33:14.151Z,22.69
2022-08-19T18:35:48.575Z,22.59
2022-08-19T18:38:36.225Z,22.50
2022-08-19T18:41:23.064Z,22.28
2022-08-19T18:44:08.894Z,22.14
2022-08-19T18:46:54.551Z,22.08
2022-08-19T18:49:29.178Z,22.05
2022-08-19T18:51:58.088Z,22.02
2022-08-19T18:54:26.621Z,21.98
2022-08-19T18:56:55.647Z,21.93
2022-08-19T18:59:28.836Z,21.86
2022-08-19T19:01:58.280Z,21.69
2022-08-19T19:04:35.143Z,21.55
2022-08-19T19:07:01.708Z,21.50
2022-08-19T19:09:28.632Z,21.48
2022-08-19T19:12:01.782Z,21.51
2022-08-19T19:14:48.757Z,21.51
2022-08-19T19:17:16.126Z,21.54
2022-08-19T19:19:43.882Z,21.57
2022-08-19T19:22:21.207Z,21.58
2022-08-19T19:24:48.695Z,21.53
2022-08-19T19:27:20.167Z,21.51
2022-08-19T19:29:52.030Z,21.43
2022-08-19T19:32:29.388Z,21.40
2022-08-19T19:34:56.428Z,21.43
2022-08-19T19:37:23.072Z,21.48
2022-08-19T19:39:49.587Z,21.50
2022-08-19T19:42:21.386Z,21.49
2022-08-19T19:44:54.463Z,21.49
2022-08-19T19:47:28.330Z,21.41
2022-08-19T19:52:48.221Z,21.28
2022-08-19T19:55:19.994Z,21.25
2022-08-19T19:57:50.222Z,21.20
2022-08-19T20:00:18.911Z,21.21
2022-08-19T20:02:49.757Z,21.23
2022-08-19T20:05:17.316Z,21.18
2022-08-19T20:08:02.500Z,21.20
2022-08-19T20:10:29.619Z,21.15
2022-08-19T20:12:56.891Z,21.17
2022-08-19T20:15:24.077Z,21.18
2022-08-19T20:17:50.968Z,21.22
2022-08-19T20:20:19.185Z,21.27
2022-08-19T20:22:47.467Z,21.26
2022-08-19T20:25:18.861Z,21.17
2022-08-19T20:27:49.641Z,21.09
2022-08-19T20:30:20.516Z,21.06
2022-08-19T20:32:49.442Z,20.96
2022-08-19T20:35:19.795Z,20.94
2022-08-19T20:37:46.595Z,20.95
2022-08-19T20:40:14.305Z,20.98
2022-08-19T20:42:43.848Z,20.99
2022-08-19T20:45:29.470Z,21.00
2022-08-19T20:48:02.546Z,20.96
2022-08-19T20:50:30.112Z,20.98
2022-08-19T20:52:57.831Z,20.99
2022-08-19T20:55:26.102Z,20.94
2022-08-19T20:57:52.746Z,20.89
2022-08-19T21:00:19.739Z,20.88
2022-08-19T21:02:46.945Z,20.84
2022-08-19T21:05:13.746Z,20.77
2022-08-19T21:07:40.326Z,20.76
2022-08-19T21:10:07.591Z,20.74
2022-08-19T21:12:34.339Z,20.66
2022-08-19T21:15:00.847Z,20.63
2022-08-19T21:17:27.373Z,20.60
2022-08-19T21:19:53.947Z,20.57
2022-08-19T21:22:20.443Z,20.60
2022-08-19T21:24:46.974Z,20.69
2022-08-19T21:27:13.670Z,20.73
2022-08-19T21:29:41.992Z,20.69
2022-08-19T21:32:11.031Z,20.68
2022-08-19T21:34:43.954Z,20.70
2022-08-19T21:37:18.982Z,20.69
2022-08-19T21:39:52.087Z,20.67
2022-08-19T21:42:18.688Z,20.69
2022-08-19T21:44:45.960Z,20.70
2022-08-19T21:47:13.024Z,20.68
2022-08-19T21:49:39.934Z,20.67
2022-08-19T21:52:08.102Z,20.68
2022-08-19T21:54:38.109Z,20.65
2022-08-19T21:57:10.132Z,20.65
2022-08-19T21:59:43.621Z,20.63
2022-08-19T22:02:20.472Z,20.64
2022-08-19T22:04:48.703Z,20.58
2022-08-19T22:07:15.634Z,20.57
2022-08-19T22:09:45.235Z,20.57
2022-08-19T22:12:24.639Z,20.53
2022-08-19T22:14:53.019Z,20.54
2022-08-19T22:17:21.216Z,20.52
2022-08-19T22:19:48.978Z,20.54
2022-08-19T22:22:30.024Z,20.47
2022-08-19T22:25:12.326Z,20.37
2022-08-19T22:27:39.226Z,20.32
2022-08-19T22:30:13.990Z,20.22
2022-08-19T22:32:50.500Z,20.20
2022-08-19T22:35:25.205Z,20.17
2022-08-19T22:37:51.939Z,20.11
2022-08-19T22:40:20.293Z,20.08
2022-08-19T22:42:48.830Z,20.08
2022-08-19T22:45:17.515Z,20.07
2022-08-19T22:47:45.282Z,20.01
2022-08-19T22:50:13.756Z,19.96
2022-08-19T22:52:51.981Z,19.97
2022-08-19T22:55:19.269Z,20.01
2022-08-19T22:57:45.785Z,20.03
2022-08-19T23:00:13.565Z,20.04
2022-08-19T23:02:52.296Z,20.04
2022-08-19T23:05:22.393Z,20.02
2022-08-19T23:07:52.677Z,19.99
2022-08-19T23:10:27.423Z,20.03
2022-08-19T23:12:57.607Z,20.05
2022-08-19T23:15:31.045Z,19.96
2022-08-19T23:18:01.602Z,19.97
2022-08-19T23:20:34.837Z,19.96
2022-08-19T23:23:09.270Z,20.00
2022-08-19T23:25:37.862Z,20.03
2022-08-19T23:28:25.071Z,19.99
2022-08-19T23:30:53.339Z,19.97
2022-08-19T23:33:46.541Z,20.02
2022-08-19T23:36:17.661Z,20.02
2022-08-19T23:38:47.699Z,20.03
2022-08-19T23:41:17.036Z,20.06
2022-08-19T23:43:44.758Z,20.00
2022-08-19T23:46:14.979Z,20.01
2022-08-19T23:48:54.607Z,19.95
2022-08-19T23:51:23.643Z,19.96
2022-08-19T23:53:50.169Z,19.85
2022-08-19T23:56:16.743Z,19.85
2022-08-19T23:58:43.358Z,19.79
